Time;durP1;ratioP1;P1;durP2;ratioP2;P2;SDS_P1;SDS_P2;PMS_P1;PMS_P2;Temp;Humidity;BMP_temperature;BMP_pressure;BME280_temperature;BME280_humidity;BME280_pressure;Samples;Min_cycle;Max_cycle;Signal;HPM_P1;HPM_P2
2022/11/23 05:00:15;;;;;;;1999.90;999.90;;;5.80;99.90;;;;;;6136403;22;21689;-75
2022/11/23 05:02:40;;;;;;;1999.90;999.90;;;5.70;99.90;;;;;;5035198;28;20081;-77
2022/11/23 05:05:06;;;;;;;1999.90;999.90;;;5.90;99.90;;;;;;5020904;28;20476;-76
2022/11/23 05:07:32;;;;;;;1999.90;999.90;;;5.80;99.90;;;;;;5039052;28;20847;-78
2022/11/23 05:09:57;;;;;;;1999.90;999.90;;;5.80;99.90;;;;;;5038703;28;20557;-77
2022/11/23 05:14:53;;;;;;;1999.90;999.90;;;5.90;99.90;;;;;;5035568;28;20046;-79
2022/11/23 05:17:18;;;;;;;1999.90;999.90;;;6.00;99.90;;;;;;5019484;28;20038;-81
2022/11/23 05:19:44;;;;;;;1999.90;999.90;;;6.00;99.90;;;;;;5019660;28;20038;-79
2022/11/23 05:22:10;;;;;;;1999.90;999.90;;;6.10;99.90;;;;;;5037992;28;20129;-79
2022/11/23 05:24:35;;;;;;;1999.90;999.90;;;6.00;99.90;;;;;;5037723;28;20510;-79
2022/11/23 05:27:01;;;;;;;1999.90;999.90;;;6.10;99.90;;;;;;5019353;28;20034;-80
2022/11/23 05:29:26;;;;;;;1999.90;999.90;;;6.20;99.90;;;;;;5038968;28;20034;-80
2022/11/23 05:31:53;;;;;;;1999.90;999.90;;;6.10;99.90;;;;;;5039961;28;20049;-81
2022/11/23 05:34:18;;;;;;;1999.90;999.90;;;6.20;99.90;;;;;;5022002;28;20036;-81
2022/11/23 05:36:44;;;;;;;1999.90;999.90;;;6.20;99.90;;;;;;5022116;28;20096;-80
2022/11/23 05:39:10;;;;;;;1999.90;999.90;;;6.30;99.90;;;;;;5040206;28;20030;-81
2022/11/23 05:41:35;;;;;;;1999.90;999.90;;;6.30;99.90;;;;;;5038677;28;20096;-80
2022/11/23 05:44:01;;;;;;;1999.90;999.90;;;6.30;99.90;;;;;;5022423;28;20081;-79
2022/11/23 05:46:27;;;;;;;1999.90;999.90;;;6.30;99.90;;;;;;5022847;28;20031;-79
2022/11/23 05:48:52;;;;;;;1999.90;999.90;;;6.30;99.90;;;;;;5021749;28;20034;-79
2022/11/23 05:51:18;;;;;;;1999.90;999.90;;;6.30;99.90;;;;;;5022532;28;20042;-79
2022/11/23 05:53:43;;;;;;;1999.90;999.90;;;6.40;99.90;;;;;;5039645;28;20022;-80
2022/11/23 05:56:09;;;;;;;1999.90;999.90;;;6.40;99.90;;;;;;5022946;28;20081;-80
2022/11/23 05:58:35;;;;;;;1999.90;999.90;;;6.40;99.90;;;;;;5023151;28;20030;-81
2022/11/23 06:01:01;;;;;;;1999.90;999.90;;;6.40;99.90;;;;;;5022564;28;20041;-79
2022/11/23 06:03:27;;;;;;;1999.90;999.90;;;6.40;99.90;;;;;;5040030;28;20533;-80
2022/11/23 06:05:52;;;;;;;1999.90;999.90;;;6.40;99.90;;;;;;5022857;28;20129;-82
2022/11/23 06:08:18;;;;;;;1999.90;999.90;;;6.30;99.90;;;;;;5041420;28;20030;-81
2022/11/23 06:10:43;;;;;;;1999.90;999.90;;;6.40;99.90;;;;;;5020807;28;20037;-80
2022/11/23 06:13:09;;;;;;;1999.90;999.90;;;6.40;99.90;;;;;;5040587;28;20038;-81
2022/11/23 06:15:34;;;;;;;1999.90;999.90;;;6.30;99.90;;;;;;5040090;28;20025;-80
2022/11/23 06:18:00;;;;;;;1999.90;999.90;;;6.30;99.90;;;;;;5039921;28;20399;-80
2022/11/23 06:20:28;;;;;;;1999.90;999.90;;;6.30;99.90;;;;;;5037854;28;20104;-78
2022/11/23 06:22:54;;;;;;;1999.90;999.90;;;6.30;99.90;;;;;;5036105;28;20030;-78
2022/11/23 06:25:20;;;;;;;1999.90;999.90;;;6.30;99.90;;;;;;5020760;28;20038;-79
2022/11/23 06:27:52;;;;;;;1999.90;999.90;;;6.30;99.90;;;;;;5043382;28;20034;-79
2022/11/23 06:30:18;;;;;;;1999.90;999.90;;;6.30;99.90;;;;;;5024116;28;20407;-80
2022/11/23 06:32:46;;;;;;;1999.90;999.90;;;6.40;99.90;;;;;;5026292;28;20034;-80
2022/11/23 06:35:12;;;;;;;1999.90;999.90;;;6.40;99.90;;;;;;5006733;28;20073;-79
2022/11/23 06:37:37;;;;;;;1999.90;999.90;;;6.40;99.90;;;;;;5004500;28;20479;-79
2022/11/23 06:40:03;;;;;;;1999.90;999.90;;;6.30;99.90;;;;;;5018694;28;20070;-82
2022/11/23 06:42:29;;;;;;;1999.90;999.90;;;6.30;99.90;;;;;;5004159;28;20861;-82
2022/11/23 06:44:54;;;;;;;1999.90;999.90;;;6.30;99.90;;;;;;5024076;28;20034;-80
2022/11/23 06:47:20;;;;;;;1999.90;999.90;;;6.30;99.90;;;;;;5020872;28;20037;-79
2022/11/23 06:49:45;;;;;;;1999.90;999.90;;;6.30;99.90;;;;;;5027218;28;20025;-81
2022/11/23 06:52:12;;;;;;;1999.90;999.90;;;6.30;99.90;;;;;;5024097;28;20027;-81
2022/11/23 06:55:04;;;;;;;1999.90;999.90;;;6.40;99.90;;;;;;5027865;28;20462;-81
2022/11/23 06:57:30;;;;;;;1999.90;999.90;;;6.40;99.90;;;;;;4998139;28;20523;-81
2022/11/23 06:59:55;;;;;;;1999.90;999.90;;;6.40;99.90;;;;;;5000914;28;20042;-82
2022/11/23 07:02:21;;;;;;;1999.90;999.90;;;6.40;99.90;;;;;;5016895;28;20128;-81
2022/11/23 07:04:46;;;;;;;1999.90;999.90;;;6.40;99.90;;;;;;5017289;28;20394;-81
2022/11/23 07:07:12;;;;;;;1999.90;999.90;;;6.50;99.90;;;;;;5021533;28;20038;-81
2022/11/23 07:09:38;;;;;;;1999.90;999.90;;;6.50;99.90;;;;;;5038372;28;20803;-82
2022/11/23 07:12:03;;;;;;;1999.90;999.90;;;6.50;99.90;;;;;;5047926;28;20041;-82
2022/11/23 07:14:46;;;;;;;1999.90;999.90;;;6.60;99.90;;;;;;5039755;28;20037;-82
2022/11/23 07:17:11;;;;;;;1999.90;999.90;;;6.60;99.90;;;;;;5038973;28;20044;-82
2022/11/23 07:19:37;;;;;;;1999.90;999.90;;;6.60;99.90;;;;;;5057566;28;20037;-80
2022/11/23 07:22:02;;;;;;;1999.90;999.90;;;6.70;99.90;;;;;;5039489;28;20049;-79
2022/11/23 07:24:28;;;;;;;1999.90;999.90;;;6.80;99.90;;;;;;5037310;28;20065;-80
2022/11/23 07:26:53;;;;;;;1999.90;999.90;;;6.80;99.90;;;;;;5029481;28;20045;-79
2022/11/23 07:29:19;;;;;;;1999.90;999.90;;;6.90;99.90;;;;;;5016622;28;20062;-80
2022/11/23 07:31:44;;;;;;;1999.90;999.90;;;6.90;99.90;;;;;;5044316;28;20103;-81
2022/11/23 07:34:10;;;;;;;1999.90;999.90;;;7.00;99.90;;;;;;5033798;28;20049;-81
2022/11/23 07:36:36;;;;;;;1999.90;999.90;;;7.00;99.90;;;;;;5034491;28;20045;-81
2022/11/23 07:39:02;;;;;;;1999.90;999.90;;;7.10;99.90;;;;;;5017690;28;20034;-82
2022/11/23 07:41:28;;;;;;;1999.90;999.90;;;7.10;99.90;;;;;;5017844;28;20177;-82
2022/11/23 07:43:53;;;;;;;1999.90;999.90;;;7.10;99.90;;;;;;5017499;28;20038;-80
2022/11/23 07:46:20;;;;;;;1999.90;999.90;;;7.20;99.90;;;;;;5035447;28;20104;-82
2022/11/23 07:48:45;;;;;;;1999.90;999.90;;;7.20;99.90;;;;;;5035441;28;20038;-82
2022/11/23 07:51:11;;;;;;;1999.90;999.90;;;7.30;99.90;;;;;;5017925;28;20034;-86
2022/11/23 07:53:36;;;;;;;1999.90;999.90;;;7.30;99.90;;;;;;5016723;28;20513;-83
2022/11/23 07:56:02;;;;;;;1999.90;999.90;;;7.40;99.90;;;;;;5020733;28;20041;-85
2022/11/23 07:58:28;;;;;;;1999.90;999.90;;;7.40;99.90;;;;;;5021100;28;20046;-84
2022/11/23 08:00:53;;;;;;;1999.90;999.90;;;7.40;99.90;;;;;;5017125;28;20092;-85
2022/11/23 08:03:19;;;;;;;1999.90;999.90;;;7.40;99.90;;;;;;5034746;28;20392;-80
2022/11/23 08:05:45;;;;;;;1999.90;999.90;;;7.50;99.90;;;;;;5017844;28;20541;-80
2022/11/23 08:08:10;;;;;;;1999.90;999.90;;;7.50;99.90;;;;;;5035837;28;20113;-80
2022/11/23 08:10:36;;;;;;;1999.90;999.90;;;7.60;99.90;;;;;;5018083;28;20069;-81
2022/11/23 08:13:04;;;;;;;1999.90;999.90;;;7.60;99.90;;;;;;5017304;28;20086;-81
2022/11/23 08:15:30;;;;;;;1999.90;999.90;;;7.60;99.90;;;;;;5018046;28;20033;-78
2022/11/23 08:17:57;;;;;;;1999.90;999.90;;;7.60;99.90;;;;;;5017251;28;20570;-80
2022/11/23 08:20:23;;;;;;;1999.90;999.90;;;7.70;99.90;;;;;;5034724;28;20044;-80
2022/11/23 08:22:49;;;;;;;1999.90;999.90;;;7.70;99.90;;;;;;5016467;28;20073;-80
2022/11/23 08:25:14;;;;;;;1999.90;999.90;;;7.70;99.90;;;;;;5018512;28;20455;-81
2022/11/23 08:27:40;;;;;;;1999.90;999.90;;;7.70;99.90;;;;;;5017128;28;20041;-80
2022/11/23 08:30:06;;;;;;;1999.90;999.90;;;7.60;99.90;;;;;;5034425;28;20040;-80
2022/11/23 08:32:32;;;;;;;1999.90;999.90;;;7.60;99.90;;;;;;5035026;28;20438;-81
2022/11/23 08:34:57;;;;;;;1999.90;999.90;;;7.50;99.90;;;;;;5026726;28;20052;-79
2022/11/23 08:37:23;;;;;;;1999.90;999.90;;;7.60;99.90;;;;;;5055298;28;20079;-80
2022/11/23 08:39:48;;;;;;;1999.90;999.90;;;7.70;99.90;;;;;;5036914;28;20101;-79
2022/11/23 08:42:14;;;;;;;1999.90;999.90;;;7.80;99.90;;;;;;5037100;28;20112;-80
2022/11/23 08:44:39;;;;;;;1999.90;999.90;;;7.90;99.90;;;;;;5057423;28;20033;-79
2022/11/23 08:47:05;;;;;;;1999.90;999.90;;;8.10;99.90;;;;;;5058747;28;20045;-78
2022/11/23 08:49:30;;;;;;;1999.90;999.90;;;8.10;99.90;;;;;;5039364;28;20033;-80
2022/11/23 08:51:56;;;;;;;1999.90;999.90;;;8.20;99.90;;;;;;5055533;28;20065;-81
2022/11/23 08:54:23;;;;;;;1999.90;999.90;;;8.40;99.90;;;;;;5036304;28;20038;-80
2022/11/23 08:56:49;;;;;;;1999.90;999.90;;;8.50;99.90;;;;;;5036849;28;20096;-80
2022/11/23 08:59:16;;;;;;;1999.90;999.90;;;8.50;99.90;;;;;;5037024;28;20093;-80
2022/11/23 09:01:42;;;;;;;1999.90;999.90;;;8.50;99.90;;;;;;5054838;28;20037;-82
2022/11/23 09:04:07;;;;;;;1999.90;999.90;;;8.40;99.90;;;;;;5036382;28;20732;-80
2022/11/23 09:06:34;;;;;;;1999.90;999.90;;;8.50;99.90;;;;;;5056551;28;20044;-80
2022/11/23 09:08:59;;;;;;;1999.90;999.90;;;8.60;99.90;;;;;;5054587;28;20034;-79
2022/11/23 09:11:25;;;;;;;1999.90;999.90;;;8.70;99.90;;;;;;5055106;28;20029;-78
2022/11/23 09:13:51;;;;;;;1999.90;999.90;;;8.80;99.90;;;;;;5054211;28;20041;-83
2022/11/23 09:16:16;;;;;;;1999.90;999.90;;;8.80;99.90;;;;;;5055722;28;20038;-80
2022/11/23 09:18:42;;;;;;;1999.90;999.90;;;8.90;99.90;;;;;;5041044;28;20033;-79
2022/11/23 09:21:09;;;;;;;1999.90;999.90;;;8.90;99.90;;;;;;5059109;28;20399;-79
2022/11/23 09:23:35;;;;;;;1999.90;999.90;;;9.20;99.90;;;;;;5040106;28;20527;-79
2022/11/23 09:26:02;;;;;;;1999.90;999.90;;;9.40;99.90;;;;;;5059045;28;20099;-79
2022/11/23 09:28:29;;;;;;;1999.90;999.90;;;9.50;99.90;;;;;;5040653;28;20030;-78
2022/11/23 09:30:55;;;;;;;1999.90;999.90;;;9.50;99.90;;;;;;5039381;28;20034;-78
2022/11/23 09:33:22;;;;;;;1999.90;999.90;;;9.50;99.90;;;;;;5061743;28;20029;-78
2022/11/23 09:35:56;;;;;;;1999.90;999.90;;;9.40;99.90;;;;;;5060480;28;20045;-79
2022/11/23 09:38:21;;;;;;;1999.90;999.90;;;9.60;99.90;;;;;;5054998;28;20040;-79
2022/11/23 09:40:55;;;;;;;1999.90;999.90;;;9.70;99.90;;;;;;5063230;28;20056;-79
2022/11/23 09:43:42;;;;;;;1999.90;999.90;;;9.80;99.90;;;;;;5057693;28;20053;-79
2022/11/23 09:46:20;;;;;;;1999.90;999.90;;;10.00;99.90;;;;;;5058286;28;20600;-79
2022/11/23 09:49:11;;;;;;;1999.90;999.90;;;10.10;99.90;;;;;;5039648;28;20032;-79
2022/11/23 09:51:38;;;;;;;1999.90;999.90;;;10.00;99.90;;;;;;5039141;28;20053;-79
2022/11/23 09:54:10;;;;;;;1999.90;999.90;;;9.80;99.90;;;;;;5038665;28;20513;-79
2022/11/23 09:56:38;;;;;;;1999.90;999.90;;;9.70;99.90;;;;;;5057623;28;20128;-79
2022/11/23 09:59:20;;;;;;;1999.90;999.90;;;9.40;99.90;;;;;;5057326;28;20404;-79
2022/11/23 10:01:46;;;;;;;1999.90;999.90;;;9.30;99.90;;;;;;5040232;28;20049;-79
2022/11/23 10:04:18;;;;;;;1999.90;999.90;;;9.10;99.90;;;;;;5039001;28;20387;-79
2022/11/23 10:06:47;;;;;;;1999.90;999.90;;;9.00;99.90;;;;;;5038626;28;20545;-78
2022/11/23 10:09:41;;;;;;;1999.90;999.90;;;8.90;99.90;;;;;;5038512;28;20120;-79
2022/11/23 10:12:22;;;;;;;1999.90;999.90;;;8.90;99.90;;;;;;5030353;28;20041;-79
2022/11/23 10:15:13;;;;;;;1999.90;999.90;;;8.80;99.90;;;;;;5056372;28;20113;-79
2022/11/23 10:18:03;;;;;;;1999.90;999.90;;;8.70;99.90;;;;;;5038937;28;20537;-79
2022/11/23 10:20:46;;;;;;;1999.90;999.90;;;8.80;99.90;;;;;;5056021;28;20442;-78
2022/11/23 10:23:33;;;;;;;1999.90;999.90;;;8.70;99.90;;;;;;5038217;28;20163;-78
2022/11/23 10:25:59;;;;;;;1999.90;999.90;;;8.70;99.90;;;;;;5056213;28;20037;-79
2022/11/23 10:28:28;;;;;;;1999.90;999.90;;;8.70;99.90;;;;;;5055269;28;20034;-78
2022/11/23 10:31:14;;;;;;;1999.90;999.90;;;8.80;99.90;;;;;;5036745;28;20033;-79
2022/11/23 10:34:07;;;;;;;1999.90;999.90;;;8.90;99.90;;;;;;5037997;28;20037;-79
2022/11/23 10:36:37;;;;;;;1999.90;999.90;;;8.90;99.90;;;;;;5037362;28;20120;-79
2022/11/23 10:39:20;;;;;;;1999.90;999.90;;;8.90;99.90;;;;;;5054497;28;20477;-79
2022/11/23 10:41:46;;;;;;;1999.90;999.90;;;8.90;99.90;;;;;;5023547;28;20049;-79
2022/11/23 10:44:25;;;;;;;1999.90;999.90;;;8.90;99.90;;;;;;5016530;28;20037;-78
2022/11/23 10:46:50;;;;;;;1999.90;999.90;;;9.00;99.90;;;;;;5016612;28;20068;-78
2022/11/23 10:49:31;;;;;;;1999.90;999.90;;;9.00;99.90;;;;;;5017545;28;20113;-78
2022/11/23 10:52:04;;;;;;;1999.90;999.90;;;9.00;99.90;;;;;;5018082;28;20042;-81
2022/11/23 10:54:44;;;;;;;1999.90;999.90;;;9.00;99.90;;;;;;5017349;28;20026;-79
2022/11/23 10:57:28;;;;;;;1999.90;999.90;;;9.00;99.90;;;;;;5036191;28;20419;-79
2022/11/23 11:00:08;;;;;;;1999.90;999.90;;;9.10;99.90;;;;;;5036659;28;20026;-79
2022/11/23 11:02:43;;;;;;;1999.90;999.90;;;9.10;99.90;;;;;;5022301;28;20037;-80
2022/11/23 11:05:36;;;;;;;1999.90;999.90;;;9.10;99.90;;;;;;5019856;28;20030;-80
2022/11/23 11:08:18;;;;;;;1999.90;999.90;;;9.30;99.90;;;;;;5019173;28;20033;-85
2022/11/23 11:10:51;;;;;;;1999.90;999.90;;;9.40;99.90;;;;;;5018408;28;20038;-80
2022/11/23 11:13:20;;;;;;;1999.90;999.90;;;9.40;99.90;;;;;;5059852;23;20017;-78
2022/11/23 11:16:00;;;;;;;1999.90;999.90;;;9.50;99.90;;;;;;5018901;28;20049;-82
2022/11/23 11:18:35;;;;;;;1999.90;999.90;;;9.50;99.90;;;;;;5018149;28;20029;-79
2022/11/23 11:21:19;;;;;;;1999.90;999.90;;;9.60;99.90;;;;;;5036455;28;20518;-80
2022/11/23 11:24:04;;;;;;;1999.90;999.90;;;9.60;99.90;;;;;;5036858;28;20034;-80
2022/11/23 11:26:32;;;;;;;1999.90;999.90;;;9.70;99.90;;;;;;5037470;28;20042;-79
2022/11/23 11:29:01;;;;;;;1999.90;999.90;;;9.70;99.90;;;;;;5019693;28;20085;-80
2022/11/23 11:31:41;;;;;;;1999.90;999.90;;;9.80;99.90;;;;;;5039251;28;20092;-79
2022/11/23 11:34:21;;;;;;;1999.90;999.90;;;9.80;99.90;;;;;;5021223;28;20049;-80
2022/11/23 11:36:56;;;;;;;1999.90;999.90;;;9.80;99.90;;;;;;5022012;28;20403;-81
2022/11/23 11:40:02;;;;;;;1999.90;999.90;;;9.90;99.90;;;;;;5038406;28;20038;-80
2022/11/23 11:42:45;;;;;;;1999.90;999.90;;;9.90;99.90;;;;;;5039313;28;20034;-80
2022/11/23 11:45:45;;;;;;;1999.90;999.90;;;10.00;99.90;;;;;;5040534;28;20025;-80
2022/11/23 11:48:27;;;;;;;1999.90;999.90;;;10.10;99.90;;;;;;4980099;28;20050;-82
2022/11/23 11:51:19;;;;;;;1999.90;999.90;;;10.10;99.90;;;;;;5021059;28;20030;-80
2022/11/23 11:53:57;;;;;;;1999.90;999.90;;;10.10;99.90;;;;;;5039266;28;20084;-84
2022/11/23 11:56:41;;;;;;;1999.90;999.90;;;10.20;99.90;;;;;;5041530;28;20073;-81
2022/11/23 11:59:41;;;;;;;1999.90;999.90;;;10.20;99.90;;;;;;5022605;28;20033;-82
2022/11/23 12:02:22;;;;;;;1999.90;999.90;;;10.10;99.90;;;;;;5040556;28;20048;-80
2022/11/23 12:05:19;;;;;;;1999.90;999.90;;;10.20;99.90;;;;;;5037885;28;20033;-81
2022/11/23 12:08:29;;;;;;;1999.90;999.90;;;10.20;99.90;;;;;;5035646;28;20049;-81
2022/11/23 12:11:01;;;;;;;1999.90;999.90;;;10.30;99.90;;;;;;5023570;28;20030;-78
2022/11/23 12:13:34;;;;;;;1999.90;999.90;;;10.30;99.90;;;;;;5042267;28;20148;-83
2022/11/23 12:16:27;;;;;;;1999.90;999.90;;;10.40;99.90;;;;;;5037526;28;20026;-80
2022/11/23 12:19:18;;;;;;;1999.90;999.90;;;10.40;99.90;;;;;;5020834;28;20463;-81
2022/11/23 12:22:11;;;;;;;1999.90;999.90;;;10.30;99.90;;;;;;5019917;28;20046;-80
2022/11/23 12:25:10;;;;;;;1999.90;999.90;;;10.40;99.90;;;;;;5038798;28;20053;-81
2022/11/23 12:27:52;;;;;;;1999.90;999.90;;;10.40;99.90;;;;;;5019953;28;20118;-81
2022/11/23 12:30:22;;;;;;;1999.90;999.90;;;10.40;99.90;;;;;;5018623;28;20574;-81
2022/11/23 12:33:22;;;;;;;1999.90;999.90;;;10.40;99.90;;;;;;5018143;28;20041;-81
2022/11/23 12:36:23;;;;;;;1999.90;999.90;;;10.40;99.90;;;;;;5017904;28;20026;-81
2022/11/23 12:38:54;;;;;;;1999.90;999.90;;;10.40;99.90;;;;;;5035982;28;20041;-82
2022/11/23 12:41:43;;;;;;;1999.90;999.90;;;10.50;99.90;;;;;;5018476;28;20127;-81
2022/11/23 12:44:40;;;;;;;1999.90;999.90;;;10.40;99.90;;;;;;5035450;28;20022;-81
2022/11/23 12:47:14;;;;;;;1999.90;999.90;;;10.50;99.90;;;;;;5018998;28;20041;-80
2022/11/23 12:50:08;;;;;;;1999.90;999.90;;;10.50;99.90;;;;;;5019179;28;20030;-80
2022/11/23 12:52:49;;;;;;;1999.90;999.90;;;10.60;99.90;;;;;;5038806;28;20118;-80
2022/11/23 12:55:33;;;;;;;1999.90;999.90;;;10.60;99.90;;;;;;5040747;28;20025;-81
2022/11/23 12:58:28;;;;;;;1999.90;999.90;;;10.60;99.90;;;;;;5039995;28;20483;-85
2022/11/23 13:00:57;;;;;;;1999.90;999.90;;;10.60;99.90;;;;;;5039906;28;20125;-81
2022/11/23 13:03:48;;;;;;;1999.90;999.90;;;10.60;99.90;;;;;;5006234;28;20101;-82
2022/11/23 13:06:41;;;;;;;1999.90;999.90;;;10.60;99.90;;;;;;5001781;28;20110;-81
2022/11/23 13:09:43;;;;;;;1999.90;999.90;;;10.50;99.90;;;;;;5019252;28;20031;-81
2022/11/23 13:12:24;;;;;;;1999.90;999.90;;;10.50;99.90;;;;;;5002256;28;20088;-81
2022/11/23 13:14:53;;;;;;;1999.90;999.90;;;10.50;99.90;;;;;;5020114;28;20042;-84
2022/11/23 13:17:56;;;;;;;1999.90;999.90;;;10.50;99.90;;;;;;5003052;28;20030;-82
2022/11/23 13:20:46;;;;;;;1999.90;999.90;;;10.40;99.90;;;;;;5002271;28;20038;-83
2022/11/23 13:23:12;;;;;;;1999.90;999.90;;;10.40;99.90;;;;;;5021036;28;20109;-81
2022/11/23 13:25:38;;;;;;;1999.90;999.90;;;10.40;99.90;;;;;;5021076;28;20476;-81
2022/11/23 13:28:24;;;;;;;1999.90;999.90;;;10.40;99.90;;;;;;5007261;28;20050;-83
2022/11/23 13:31:18;;;;;;;1999.90;999.90;;;10.40;99.90;;;;;;5017807;28;20101;-82
2022/11/23 13:33:45;;;;;;;1999.90;999.90;;;10.30;99.90;;;;;;5047705;28;20675;-83
2022/11/23 13:36:30;;;;;;;1999.90;999.90;;;10.20;99.90;;;;;;5031490;28;20026;-82
2022/11/23 13:38:57;;;;;;;1999.90;999.90;;;10.30;99.90;;;;;;5030502;28;20033;-82
2022/11/23 13:41:34;;;;;;;1999.90;999.90;;;10.20;99.90;;;;;;5050583;28;20042;-82
2022/11/23 13:44:21;;;;;;;1999.90;999.90;;;10.20;99.90;;;;;;5034380;28;20029;-82
2022/11/23 13:47:06;;;;;;;1999.90;999.90;;;10.10;99.90;;;;;;5041917;28;20034;-82
2022/11/23 13:49:42;;;;;;;1999.90;999.90;;;10.10;99.90;;;;;;5042949;28;20037;-82
2022/11/23 13:52:19;;;;;;;1999.90;999.90;;;10.10;99.90;;;;;;5062143;28;20029;-82
2022/11/23 13:55:08;;;;;;;1999.90;999.90;;;10.00;99.90;;;;;;5062176;28;20025;-82
2022/11/23 13:57:33;;;;;;;1999.90;999.90;;;10.10;99.90;;;;;;5061330;28;20029;-82
2022/11/23 14:00:36;;;;;;;1999.90;999.90;;;10.10;99.90;;;;;;5042851;28;20040;-81
2022/11/23 14:03:59;;;;;;;1999.90;999.90;;;10.10;99.90;;;;;;5045034;28;20038;-82
2022/11/23 14:06:33;;;;;;;1999.90;999.90;;;10.00;99.90;;;;;;4958686;28;20087;-82
2022/11/23 14:09:31;;;;;;;1999.90;999.90;;;9.90;99.90;;;;;;4942222;28;20031;-82
2022/11/23 14:12:05;;;;;;;1999.90;999.90;;;9.80;99.90;;;;;;4998549;28;20046;-82
2022/11/23 14:14:47;;;;;;;1999.90;999.90;;;9.90;99.90;;;;;;5021312;28;20057;-82
2022/11/23 14:17:41;;;;;;;1999.90;999.90;;;9.90;99.90;;;;;;5021913;28;20157;-82
2022/11/23 14:20:10;;;;;;;1999.90;999.90;;;9.90;99.90;;;;;;5022319;28;20499;-83
2022/11/23 14:22:41;;;;;;;1999.90;999.90;;;9.80;99.90;;;;;;5023103;28;20496;-82
2022/11/23 14:25:36;;;;;;;1999.90;999.90;;;9.80;99.90;;;;;;5022638;28;20030;-82
2022/11/23 14:28:33;;;;;;;1999.90;999.90;;;9.80;99.90;;;;;;5041490;28;20049;-83
2022/11/23 14:31:29;;;;;;;1999.90;999.90;;;9.60;99.90;;;;;;5050280;28;20041;-81
2022/11/23 14:34:08;;;;;;;1999.90;999.90;;;9.50;99.90;;;;;;5038533;28;20057;-85
2022/11/23 14:36:49;;;;;;;1999.90;999.90;;;9.50;99.90;;;;;;5023370;28;20519;-82
2022/11/23 14:39:24;;;;;;;1999.90;999.90;;;9.40;99.90;;;;;;5022434;28;20065;-81
2022/11/23 14:41:55;;;;;;;1999.90;999.90;;;9.20;99.90;;;;;;5039624;28;20042;-81
2022/11/23 14:44:25;;;;;;;1999.90;999.90;;;9.10;99.90;;;;;;5039329;28;20434;-81
2022/11/23 14:47:08;;;;;;;1999.90;999.90;;;8.90;99.90;;;;;;5022066;28;20093;-80
2022/11/23 14:49:35;;;;;;;1999.90;999.90;;;8.70;99.90;;;;;;5021182;28;20080;-80
2022/11/23 14:52:02;;;;;;;1999.90;999.90;;;8.50;99.90;;;;;;5018910;28;20030;-80
2022/11/23 14:54:29;;;;;;;1999.90;999.90;;;8.40;99.90;;;;;;5024244;28;20037;-80
2022/11/23 14:57:03;;;;;;;1999.90;999.90;;;8.30;99.90;;;;;;5042496;28;20034;-80
2022/11/23 14:59:39;;;;;;;1999.90;999.90;;;8.20;99.90;;;;;;5038958;28;20069;-80
2022/11/23 15:02:13;;;;;;;1999.90;999.90;;;8.20;99.90;;;;;;5039587;28;20060;-80
2022/11/23 15:05:10;;;;;;;1999.90;999.90;;;8.40;99.90;;;;;;5039177;28;20036;-80
2022/11/23 15:08:09;;;;;;;1999.90;999.90;;;8.40;99.90;;;;;;5019063;28;20042;-79
2022/11/23 15:10:57;;;;;;;1999.90;999.90;;;8.30;99.90;;;;;;5037784;28;20120;-79
2022/11/23 15:13:27;;;;;;;1999.90;999.90;;;8.20;99.90;;;;;;5019276;28;20088;-79
2022/11/23 15:15:54;;;;;;;1999.90;999.90;;;7.90;99.90;;;;;;5037921;28;20542;-79
2022/11/23 15:18:36;;;;;;;1999.90;999.90;;;7.70;99.90;;;;;;5038498;28;20034;-79
2022/11/23 15:21:06;;;;;;;1999.90;999.90;;;7.50;99.90;;;;;;5037300;28;20048;-79
2022/11/23 15:23:40;;;;;;;1999.90;999.90;;;7.20;99.90;;;;;;5019135;28;20030;-79
2022/11/23 15:26:13;;;;;;;1999.90;999.90;;;7.00;99.90;;;;;;5037414;28;20041;-79
2022/11/23 15:28:39;;;;;;;1999.90;999.90;;;6.80;99.90;;;;;;5037709;28;20037;-79
2022/11/23 15:31:32;;;;;;;1999.90;999.90;;;6.60;99.90;;;;;;5037276;28;20038;-79
2022/11/23 15:34:02;;;;;;;1999.90;999.90;;;6.50;99.90;;;;;;5019040;28;20068;-79
2022/11/23 15:36:34;;;;;;;1999.90;999.90;;;6.30;99.90;;;;;;5019235;28;20034;-79
2022/11/23 15:39:02;;;;;;;1999.90;999.90;;;6.20;99.90;;;;;;5018629;28;20038;-79
2022/11/23 15:41:29;;;;;;;1999.90;999.90;;;6.10;99.90;;;;;;5036574;28;20045;-79
2022/11/23 15:44:00;;;;;;;1999.90;999.90;;;6.00;99.90;;;;;;5018414;28;20078;-80
2022/11/23 15:46:36;;;;;;;1999.90;999.90;;;5.90;99.90;;;;;;5036553;28;20391;-79
2022/11/23 15:49:04;;;;;;;1999.90;999.90;;;5.80;99.90;;;;;;5036321;28;20022;-79
2022/11/23 15:51:37;;;;;;;1999.90;999.90;;;5.70;99.90;;;;;;5018475;28;20042;-79
2022/11/23 15:54:02;;;;;;;1999.90;999.90;;;5.60;99.90;;;;;;5018003;28;20034;-79
2022/11/23 15:56:30;;;;;;;1999.90;999.90;;;5.40;99.90;;;;;;5036129;28;20034;-79
2022/11/23 15:59:00;;;;;;;1999.90;999.90;;;5.30;99.90;;;;;;5035749;28;20518;-79
2022/11/23 16:01:26;;;;;;;1999.90;999.90;;;5.20;99.90;;;;;;5035304;28;20096;-79
2022/11/23 16:04:01;;;;;;;1999.90;999.90;;;5.20;99.90;;;;;;5036099;28;20088;-79
2022/11/23 16:06:40;;;;;;;1999.90;999.90;;;5.20;99.90;;;;;;5010851;28;20116;-79
2022/11/23 16:09:46;;;;;;;1999.90;999.90;;;5.30;99.90;;;;;;5005767;28;20130;-79
2022/11/23 16:12:30;;;;;;;1999.90;999.90;;;5.30;99.90;;;;;;4998071;28;20038;-79
2022/11/23 16:14:57;;;;;;;1999.90;999.90;;;5.40;99.90;;;;;;5015037;28;20045;-79
2022/11/23 16:17:27;;;;;;;1999.90;999.90;;;5.50;99.90;;;;;;4998176;28;20038;-79
2022/11/23 16:19:58;;;;;;;1999.90;999.90;;;5.60;99.90;;;;;;5016584;28;20034;-78
2022/11/23 16:22:27;;;;;;;1999.90;999.90;;;5.80;99.90;;;;;;5015874;28;20420;-79
2022/11/23 16:25:03;;;;;;;1999.90;999.90;;;6.20;99.90;;;;;;4999378;28;20057;-84
2022/11/23 16:27:29;;;;;;;1999.90;999.90;;;6.50;99.90;;;;;;5006538;28;20030;-79
2022/11/23 16:29:55;;;;;;;1999.90;999.90;;;6.80;99.90;;;;;;5019396;28;20038;-80
2022/11/23 16:32:28;;;;;;;1999.90;999.90;;;7.10;99.90;;;;;;5019213;28;20042;-80
2022/11/23 16:35:03;;;;;;;1999.90;999.90;;;7.30;99.90;;;;;;5001549;28;20038;-78
2022/11/23 16:37:29;;;;;;;1999.90;999.90;;;7.60;99.90;;;;;;5019309;28;20040;-81
2022/11/23 16:39:54;;;;;;;1999.90;999.90;;;7.60;99.90;;;;;;5026773;28;20421;-79
2022/11/23 16:42:20;;;;;;;1999.90;999.90;;;7.70;99.90;;;;;;5021391;28;20503;-80
2022/11/23 16:44:45;;;;;;;1999.90;999.90;;;7.80;99.90;;;;;;5022081;28;20026;-85
2022/11/23 16:47:19;;;;;;;1999.90;999.90;;;7.80;99.90;;;;;;5022415;28;20042;-79
2022/11/23 16:49:45;;;;;;;1999.90;999.90;;;7.90;99.90;;;;;;5039468;28;20050;-82
2022/11/23 16:52:11;;;;;;;1999.90;999.90;;;7.90;99.90;;;;;;5039776;28;20065;-81
2022/11/23 16:54:36;;;;;;;1999.90;999.90;;;8.00;99.90;;;;;;5042375;28;20538;-81
2022/11/23 16:57:03;;;;;;;1999.90;999.90;;;8.00;99.90;;;;;;5041374;28;20037;-81
2022/11/23 16:59:29;;;;;;;1999.90;999.90;;;8.00;99.90;;;;;;5022105;28;20034;-80
2022/11/23 17:01:56;;;;;;;1999.90;999.90;;;8.00;99.90;;;;;;5039510;28;20115;-80
2022/11/23 17:04:21;;;;;;;1999.90;999.90;;;8.00;99.90;;;;;;5038279;28;20037;-80
2022/11/23 17:06:47;;;;;;;1999.90;999.90;;;8.00;99.90;;;;;;5038656;28;20057;-85
2022/11/23 17:09:13;;;;;;;1999.90;999.90;;;8.10;99.90;;;;;;5039141;28;20155;-80
2022/11/23 17:11:43;;;;;;;1999.90;999.90;;;8.30;99.90;;;;;;5039584;28;20037;-79
2022/11/23 17:14:13;;;;;;;1999.90;999.90;;;8.50;99.90;;;;;;5039574;28;20046;-82
2022/11/23 17:16:39;;;;;;;1999.90;999.90;;;8.60;99.90;;;;;;5040657;28;20058;-82
2022/11/23 17:19:18;;;;;;;1999.90;999.90;;;8.60;99.90;;;;;;5039744;28;20065;-82
2022/11/23 17:21:44;;;;;;;1999.90;999.90;;;8.70;99.90;;;;;;5022832;28;20046;-82
2022/11/23 17:24:10;;;;;;;1999.90;999.90;;;8.70;99.90;;;;;;5039838;28;20360;-82
2022/11/23 17:26:39;;;;;;;1999.90;999.90;;;8.70;99.90;;;;;;5022486;28;20767;-83
2022/11/23 17:29:11;;;;;;;1999.90;999.90;;;8.60;99.90;;;;;;5020223;28;20034;-82
2022/11/23 17:31:36;;;;;;;1999.90;999.90;;;8.50;99.90;;;;;;5021829;28;20038;-82
2022/11/23 17:34:02;;;;;;;1999.90;999.90;;;8.50;99.90;;;;;;5022182;28;20026;-82
2022/11/23 17:36:29;;;;;;;1999.90;999.90;;;8.40;99.90;;;;;;5020997;28;20034;-81
2022/11/23 17:38:55;;;;;;;1999.90;999.90;;;8.40;99.90;;;;;;5044993;28;20045;-80